sensor_id;sensor_type;location;lat;lon;timestamp;pressure;altitude;pressure_sealevel;temperature;humidity
38452;BME280;24231;52.514;13.438;2023-02-28T00:03:02;102670.42;;;1.77;57.56
38452;BME280;24231;52.514;13.438;2023-02-28T00:05:30;102666.45;;;3.12;53.54
38452;BME280;24231;52.514;13.438;2023-02-28T00:07:57;102661.52;;;4.48;49.78
38452;BME280;24231;52.514;13.438;2023-02-28T00:10:26;102671.95;;;1.49;57.28
38452;BME280;24231;52.514;13.438;2023-02-28T00:12:58;102673.46;;;1.67;58.17
38452;BME280;24231;52.514;13.438;2023-02-28T00:15:25;102675.07;;;1.23;59.53
38452;BME280;24231;52.514;13.438;2023-02-28T00:17:53;102671.33;;;2.25;56.79
38452;BME280;24231;52.514;13.438;2023-02-28T00:20:21;102671.80;;;3.05;54.15
38452;BME280;24231;52.514;13.438;2023-02-28T00:22:51;102668.99;;;2.06;55.84
38452;BME280;24231;52.514;13.438;2023-02-28T00:25:21;102678.13;;;1.09;58.95
38452;BME280;24231;52.514;13.438;2023-02-28T00:27:49;102674.22;;;0.97;59.56
38452;BME280;24231;52.514;13.438;2023-02-28T00:30:18;102673.68;;;1.47;58.08
38452;BME280;24231;52.514;13.438;2023-02-28T00:32:46;102678.19;;;1.02;60.55
38452;BME280;24231;52.514;13.438;2023-02-28T00:35:14;102674.86;;;1.29;58.84
38452;BME280;24231;52.514;13.438;2023-02-28T00:37:41;102677.27;;;1.73;57.46
38452;BME280;24231;52.514;13.438;2023-02-28T00:40:11;102674.91;;;2.12;55.60
38452;BME280;24231;52.514;13.438;2023-02-28T00:42:39;102669.46;;;4.21;50.14
38452;BME280;24231;52.514;13.438;2023-02-28T00:45:07;102677.28;;;2.95;53.24
38452;BME280;24231;52.514;13.438;2023-02-28T00:47:35;102682.56;;;1.35;58.15
38452;BME280;24231;52.514;13.438;2023-02-28T00:50:02;102684.01;;;1.48;58.03
38452;BME280;24231;52.514;13.438;2023-02-28T00:52:30;102675.84;;;2.36;55.30
38452;BME280;24231;52.514;13.438;2023-02-28T00:54:58;102677.29;;;2.64;53.96
38452;BME280;24231;52.514;13.438;2023-02-28T00:57:25;102679.81;;;1.73;57.83
38452;BME280;24231;52.514;13.438;2023-02-28T00:59:52;102681.65;;;1.34;59.31
38452;BME280;24231;52.514;13.438;2023-02-28T01:02:20;102681.42;;;1.68;58.63
38452;BME280;24231;52.514;13.438;2023-02-28T01:04:47;102675.07;;;2.78;54.74
38452;BME280;24231;52.514;13.438;2023-02-28T01:07:15;102678.09;;;2.29;56.23
38452;BME280;24231;52.514;13.438;2023-02-28T01:09:42;102677.99;;;1.28;58.51
38452;BME280;24231;52.514;13.438;2023-02-28T01:12:10;102674.69;;;1.92;56.42
38452;BME280;24231;52.514;13.438;2023-02-28T01:14:37;102677.21;;;1.73;57.79
38452;BME280;24231;52.514;13.438;2023-02-28T01:17:05;102676.62;;;1.58;58.02
38452;BME280;24231;52.514;13.438;2023-02-28T01:19:33;102668.56;;;2.71;54.88
38452;BME280;24231;52.514;13.438;2023-02-28T01:22:01;102668.39;;;2.56;54.91
38452;BME280;24231;52.514;13.438;2023-02-28T01:24:29;102669.54;;;3.62;51.41
38452;BME280;24231;52.514;13.438;2023-02-28T01:26:56;102664.98;;;2.40;54.98
38452;BME280;24231;52.514;13.438;2023-02-28T01:29:24;102661.91;;;3.01;54.00
38452;BME280;24231;52.514;13.438;2023-02-28T01:31:51;102657.76;;;3.06;53.48
38452;BME280;24231;52.514;13.438;2023-02-28T01:34:18;102652.49;;;3.93;51.02
38452;BME280;24231;52.514;13.438;2023-02-28T01:36:45;102660.20;;;3.33;52.25
38452;BME280;24231;52.514;13.438;2023-02-28T01:39:12;102656.94;;;3.84;50.50
38452;BME280;24231;52.514;13.438;2023-02-28T01:41:39;102660.68;;;2.51;54.65
38452;BME280;24231;52.514;13.438;2023-02-28T01:44:55;102662.25;;;1.39;58.44
38452;BME280;24231;52.514;13.438;2023-02-28T01:47:26;102662.06;;;1.77;57.67
38452;BME280;24231;52.514;13.438;2023-02-28T01:49:54;102661.11;;;1.14;59.99
38452;BME280;24231;52.514;13.438;2023-02-28T01:52:21;102664.68;;;3.07;54.63
38452;BME280;24231;52.514;13.438;2023-02-28T01:54:52;102659.17;;;2.07;55.71
38452;BME280;24231;52.514;13.438;2023-02-28T01:57:23;102661.19;;;2.58;54.01
38452;BME280;24231;52.514;13.438;2023-02-28T01:59:55;102664.27;;;1.37;58.24
38452;BME280;24231;52.514;13.438;2023-02-28T02:02:25;102661.69;;;2.80;53.94
38452;BME280;24231;52.514;13.438;2023-02-28T02:04:56;102657.32;;;3.01;52.61
38452;BME280;24231;52.514;13.438;2023-02-28T02:07:26;102648.03;;;4.15;49.91
38452;BME280;24231;52.514;13.438;2023-02-28T02:10:01;102649.99;;;4.97;48.26
38452;BME280;24231;52.514;13.438;2023-02-28T02:12:40;102656.50;;;3.47;51.62
38452;BME280;24231;52.514;13.438;2023-02-28T02:15:16;102654.47;;;2.54;53.89
38452;BME280;24231;52.514;13.438;2023-02-28T02:17:50;102652.87;;;2.11;55.17
38452;BME280;24231;52.514;13.438;2023-02-28T02:20:39;102659.72;;;1.41;57.96
38452;BME280;24231;52.514;13.438;2023-02-28T02:25:28;102661.89;;;1.10;60.57
38452;BME280;24231;52.514;13.438;2023-02-28T02:28:15;102660.83;;;0.98;59.81
38452;BME280;24231;52.514;13.438;2023-02-28T02:30:58;102659.04;;;0.96;61.02
38452;BME280;24231;52.514;13.438;2023-02-28T02:33:45;102654.16;;;0.97;60.61
38452;BME280;24231;52.514;13.438;2023-02-28T02:36:23;102655.26;;;1.58;59.27
38452;BME280;24231;52.514;13.438;2023-02-28T02:38:55;102658.82;;;0.67;61.76
38452;BME280;24231;52.514;13.438;2023-02-28T02:41:31;102661.50;;;1.21;60.98
38452;BME280;24231;52.514;13.438;2023-02-28T02:44:06;102666.17;;;0.10;64.90
38452;BME280;24231;52.514;13.438;2023-02-28T02:46:39;102659.03;;;0.81;61.85
38452;BME280;24231;52.514;13.438;2023-02-28T02:49:10;102656.84;;;1.70;58.13
38452;BME280;24231;52.514;13.438;2023-02-28T02:51:41;102660.33;;;0.94;61.51
38452;BME280;24231;52.514;13.438;2023-02-28T02:54:12;102651.26;;;2.22;57.04
38452;BME280;24231;52.514;13.438;2023-02-28T02:56:42;102659.31;;;1.33;60.00
38452;BME280;24231;52.514;13.438;2023-02-28T02:59:13;102654.02;;;1.92;56.78
38452;BME280;24231;52.514;13.438;2023-02-28T03:01:41;102655.58;;;2.42;56.38
38452;BME280;24231;52.514;13.438;2023-02-28T03:04:11;102661.90;;;1.51;57.77
38452;BME280;24231;52.514;13.438;2023-02-28T03:06:41;102661.37;;;1.51;58.37
38452;BME280;24231;52.514;13.438;2023-02-28T03:09:08;102662.45;;;1.10;60.38
38452;BME280;24231;52.514;13.438;2023-02-28T03:11:35;102658.13;;;3.15;54.36
38452;BME280;24231;52.514;13.438;2023-02-28T03:14:12;102661.07;;;1.68;56.36
38452;BME280;24231;52.514;13.438;2023-02-28T03:16:54;102667.88;;;1.51;58.35
38452;BME280;24231;52.514;13.438;2023-02-28T03:19:36;102665.15;;;1.77;56.88
38452;BME280;24231;52.514;13.438;2023-02-28T03:22:16;102662.03;;;3.73;51.85
38452;BME280;24231;52.514;13.438;2023-02-28T03:24:54;102656.27;;;4.25;49.75
38452;BME280;24231;52.514;13.438;2023-02-28T03:27:30;102661.42;;;4.86;48.12
38452;BME280;24231;52.514;13.438;2023-02-28T03:30:02;102667.58;;;3.83;49.90
38452;BME280;24231;52.514;13.438;2023-02-28T03:32:37;102672.11;;;2.96;51.95
38452;BME280;24231;52.514;13.438;2023-02-28T03:35:09;102669.03;;;3.49;51.77
38452;BME280;24231;52.514;13.438;2023-02-28T03:37:41;102660.06;;;4.61;48.51
38452;BME280;24231;52.514;13.438;2023-02-28T03:40:14;102663.14;;;4.68;48.12
38452;BME280;24231;52.514;13.438;2023-02-28T03:42:45;102671.78;;;2.97;52.98
38452;BME280;24231;52.514;13.438;2023-02-28T03:45:16;102671.92;;;3.34;51.32
38452;BME280;24231;52.514;13.438;2023-02-28T03:47:49;102674.71;;;1.84;56.05
38452;BME280;24231;52.514;13.438;2023-02-28T03:50:22;102673.63;;;3.20;52.68
38452;BME280;24231;52.514;13.438;2023-02-28T03:52:57;102674.46;;;3.55;51.54
38452;BME280;24231;52.514;13.438;2023-02-28T03:55:29;102669.41;;;4.05;49.42
38452;BME280;24231;52.514;13.438;2023-02-28T03:58:11;102663.82;;;4.36;48.91
38452;BME280;24231;52.514;13.438;2023-02-28T04:00:46;102672.67;;;2.94;51.91
38452;BME280;24231;52.514;13.438;2023-02-28T04:03:15;102670.81;;;2.47;53.32
38452;BME280;24231;52.514;13.438;2023-02-28T04:05:49;102674.13;;;3.67;50.45
38452;BME280;24231;52.514;13.438;2023-02-28T04:08:17;102671.81;;;4.05;49.20
38452;BME280;24231;52.514;13.438;2023-02-28T04:10:46;102671.29;;;4.30;48.82
38452;BME280;24231;52.514;13.438;2023-02-28T04:13:14;102670.28;;;4.70;48.17
38452;BME280;24231;52.514;13.438;2023-02-28T04:15:42;102667.23;;;4.45;48.33
38452;BME280;24231;52.514;13.438;2023-02-28T04:18:09;102668.69;;;4.67;47.73
38452;BME280;24231;52.514;13.438;2023-02-28T04:20:36;102667.09;;;4.64;47.95
38452;BME280;24231;52.514;13.438;2023-02-28T04:23:03;102671.69;;;4.10;48.88
38452;BME280;24231;52.514;13.438;2023-02-28T04:25:30;102671.47;;;4.04;49.10
38452;BME280;24231;52.514;13.438;2023-02-28T04:27:57;102670.76;;;4.59;47.96
38452;BME280;24231;52.514;13.438;2023-02-28T04:30:24;102682.44;;;2.83;51.55
38452;BME280;24231;52.514;13.438;2023-02-28T04:32:51;102682.76;;;2.59;53.10
38452;BME280;24231;52.514;13.438;2023-02-28T04:35:18;102686.50;;;1.05;57.90
38452;BME280;24231;52.514;13.438;2023-02-28T04:37:45;102690.35;;;0.33;61.42
38452;BME280;24231;52.514;13.438;2023-02-28T04:40:12;102694.47;;;0.09;63.15
38452;BME280;24231;52.514;13.438;2023-02-28T04:42:40;102691.82;;;0.39;62.68
38452;BME280;24231;52.514;13.438;2023-02-28T04:45:08;102688.92;;;1.22;60.30
38452;BME280;24231;52.514;13.438;2023-02-28T04:47:35;102682.50;;;2.82;54.43
38452;BME280;24231;52.514;13.438;2023-02-28T04:50:03;102694.04;;;-0.00;63.29
38452;BME280;24231;52.514;13.438;2023-02-28T04:52:30;102688.10;;;1.33;58.39
38452;BME280;24231;52.514;13.438;2023-02-28T04:54:57;102692.89;;;1.67;57.33
38452;BME280;24231;52.514;13.438;2023-02-28T04:57:24;102691.00;;;1.73;56.16
38452;BME280;24231;52.514;13.438;2023-02-28T04:59:52;102687.64;;;2.14;54.78
38452;BME280;24231;52.514;13.438;2023-02-28T05:02:18;102691.01;;;2.14;54.58
38452;BME280;24231;52.514;13.438;2023-02-28T05:04:46;102694.36;;;3.59;51.04
38452;BME280;24231;52.514;13.438;2023-02-28T05:07:13;102696.55;;;3.11;51.55
38452;BME280;24231;52.514;13.438;2023-02-28T05:09:39;102697.89;;;2.77;51.82
38452;BME280;24231;52.514;13.438;2023-02-28T05:12:07;102697.42;;;2.12;53.83
38452;BME280;24231;52.514;13.438;2023-02-28T05:14:35;102702.99;;;1.47;55.77
38452;BME280;24231;52.514;13.438;2023-02-28T05:17:02;102705.02;;;1.66;55.94
38452;BME280;24231;52.514;13.438;2023-02-28T05:19:29;102706.06;;;1.20;58.38
38452;BME280;24231;52.514;13.438;2023-02-28T05:21:56;102707.96;;;0.35;60.83
38452;BME280;24231;52.514;13.438;2023-02-28T05:24:23;102711.70;;;0.31;61.78
38452;BME280;24231;52.514;13.438;2023-02-28T05:26:51;102711.12;;;1.57;57.76
38452;BME280;24231;52.514;13.438;2023-02-28T05:29:19;102706.49;;;2.73;54.15
38452;BME280;24231;52.514;13.438;2023-02-28T05:31:47;102707.66;;;2.09;55.52
38452;BME280;24231;52.514;13.438;2023-02-28T05:34:15;102710.21;;;1.60;56.33
38452;BME280;24231;52.514;13.438;2023-02-28T05:36:42;102710.16;;;0.47;60.41
38452;BME280;24231;52.514;13.438;2023-02-28T05:39:10;102715.01;;;0.24;61.85
38452;BME280;24231;52.514;13.438;2023-02-28T05:41:40;102715.25;;;0.54;60.63
38452;BME280;24231;52.514;13.438;2023-02-28T05:44:07;102714.34;;;0.72;60.55
38452;BME280;24231;52.514;13.438;2023-02-28T05:46:35;102726.01;;;0.07;62.68
38452;BME280;24231;52.514;13.438;2023-02-28T05:49:03;102723.37;;;0.19;61.69
38452;BME280;24231;52.514;13.438;2023-02-28T05:51:30;102724.26;;;0.33;61.16
38452;BME280;24231;52.514;13.438;2023-02-28T05:53:59;102731.98;;;-0.16;62.90
38452;BME280;24231;52.514;13.438;2023-02-28T05:56:26;102731.99;;;-0.04;63.00
38452;BME280;24231;52.514;13.438;2023-02-28T05:58:54;102724.24;;;2.03;56.95
38452;BME280;24231;52.514;13.438;2023-02-28T06:01:27;102726.65;;;0.95;58.50
38452;BME280;24231;52.514;13.438;2023-02-28T06:04:04;102726.50;;;0.87;58.66
38452;BME280;24231;52.514;13.438;2023-02-28T06:06:33;102723.88;;;1.92;56.37
38452;BME280;24231;52.514;13.438;2023-02-28T06:09:00;102726.83;;;0.73;58.39
38452;BME280;24231;52.514;13.438;2023-02-28T06:11:27;102728.56;;;0.49;60.01
38452;BME280;24231;52.514;13.438;2023-02-28T06:13:54;102736.89;;;0.15;61.28
38452;BME280;24231;52.514;13.438;2023-02-28T06:16:23;102731.41;;;0.75;59.64
38452;BME280;24231;52.514;13.438;2023-02-28T06:18:50;102733.04;;;1.47;57.61
38452;BME280;24231;52.514;13.438;2023-02-28T06:21:17;102735.03;;;1.58;56.53
38452;BME280;24231;52.514;13.438;2023-02-28T06:23:45;102732.10;;;2.85;52.14
38452;BME280;24231;52.514;13.438;2023-02-28T06:26:12;102739.71;;;1.40;56.89
38452;BME280;24231;52.514;13.438;2023-02-28T06:28:39;102740.90;;;1.30;57.84
38452;BME280;24231;52.514;13.438;2023-02-28T06:31:08;102740.82;;;3.49;50.97
38452;BME280;24231;52.514;13.438;2023-02-28T06:33:35;102738.99;;;2.09;52.97
38452;BME280;24231;52.514;13.438;2023-02-28T06:36:04;102747.68;;;1.73;54.28
38452;BME280;24231;52.514;13.438;2023-02-28T06:38:31;102744.20;;;3.14;50.49
38452;BME280;24231;52.514;13.438;2023-02-28T06:40:59;102748.62;;;3.79;48.56
38452;BME280;24231;52.514;13.438;2023-02-28T06:43:28;102751.43;;;3.80;48.71
38452;BME280;24231;52.514;13.438;2023-02-28T06:45:57;102747.09;;;5.30;44.86
38452;BME280;24231;52.514;13.438;2023-02-28T06:48:26;102749.85;;;4.95;44.82
38452;BME280;24231;52.514;13.438;2023-02-28T06:51:02;102746.87;;;6.24;43.10
38452;BME280;24231;52.514;13.438;2023-02-28T06:53:29;102747.82;;;6.86;41.92
38452;BME280;24231;52.514;13.438;2023-02-28T06:55:58;102750.36;;;7.25;40.71
38452;BME280;24231;52.514;13.438;2023-02-28T06:58:25;102749.82;;;6.89;40.91
38452;BME280;24231;52.514;13.438;2023-02-28T07:00:52;102755.94;;;7.53;40.03
38452;BME280;24231;52.514;13.438;2023-02-28T07:03:21;102752.76;;;7.20;39.07
38452;BME280;24231;52.514;13.438;2023-02-28T07:05:53;102754.59;;;7.69;39.45
38452;BME280;24231;52.514;13.438;2023-02-28T07:08:19;102757.10;;;7.93;38.32
38452;BME280;24231;52.514;13.438;2023-02-28T07:10:47;102758.19;;;7.70;39.37
38452;BME280;24231;52.514;13.438;2023-02-28T07:13:13;102760.01;;;8.18;38.44
38452;BME280;24231;52.514;13.438;2023-02-28T07:15:41;102757.48;;;8.41;36.82
38452;BME280;24231;52.514;13.438;2023-02-28T07:18:08;102756.28;;;8.31;39.07
38452;BME280;24231;52.514;13.438;2023-02-28T07:20:35;102755.27;;;8.39;38.78
38452;BME280;24231;52.514;13.438;2023-02-28T07:23:02;102755.14;;;8.51;39.02
38452;BME280;24231;52.514;13.438;2023-02-28T07:25:30;102754.87;;;8.46;38.78
38452;BME280;24231;52.514;13.438;2023-02-28T07:27:57;102756.06;;;8.53;38.02
38452;BME280;24231;52.514;13.438;2023-02-28T07:30:24;102753.46;;;8.70;35.95
38452;BME280;24231;52.514;13.438;2023-02-28T07:32:51;102753.80;;;8.77;37.42
38452;BME280;24231;52.514;13.438;2023-02-28T07:35:26;102754.05;;;8.92;36.05
38452;BME280;24231;52.514;13.438;2023-02-28T07:37:54;102756.77;;;9.16;35.28
38452;BME280;24231;52.514;13.438;2023-02-28T07:40:21;102756.82;;;9.41;35.96
38452;BME280;24231;52.514;13.438;2023-02-28T07:42:48;102757.59;;;9.75;34.13
38452;BME280;24231;52.514;13.438;2023-02-28T07:45:15;102756.49;;;9.85;33.93
38452;BME280;24231;52.514;13.438;2023-02-28T07:47:43;102757.81;;;9.90;34.18
38452;BME280;24231;52.514;13.438;2023-02-28T07:50:12;102757.19;;;9.87;32.41
38452;BME280;24231;52.514;13.438;2023-02-28T07:52:39;102758.27;;;9.76;32.94
38452;BME280;24231;52.514;13.438;2023-02-28T07:55:08;102759.57;;;9.73;31.82
38452;BME280;24231;52.514;13.438;2023-02-28T07:57:37;102758.23;;;9.90;30.53
38452;BME280;24231;52.514;13.438;2023-02-28T08:00:07;102758.27;;;9.67;30.03
38452;BME280;24231;52.514;13.438;2023-02-28T08:02:35;102757.12;;;10.09;30.30
38452;BME280;24231;52.514;13.438;2023-02-28T08:05:03;102760.49;;;9.92;28.89
38452;BME280;24231;52.514;13.438;2023-02-28T08:07:30;102760.63;;;10.13;28.67
38452;BME280;24231;52.514;13.438;2023-02-28T08:09:57;102757.75;;;10.41;29.27
38452;BME280;24231;52.514;13.438;2023-02-28T08:12:25;102758.39;;;10.63;29.35
38452;BME280;24231;52.514;13.438;2023-02-28T08:14:54;102756.92;;;10.31;26.51
38452;BME280;24231;52.514;13.438;2023-02-28T08:17:21;102757.18;;;11.10;25.13
38452;BME280;24231;52.514;13.438;2023-02-28T08:19:48;102758.91;;;10.70;25.84
38452;BME280;24231;52.514;13.438;2023-02-28T08:22:15;102756.69;;;10.57;25.57
38452;BME280;24231;52.514;13.438;2023-02-28T08:24:42;102754.79;;;10.18;25.13
38452;BME280;24231;52.514;13.438;2023-02-28T08:27:09;102756.95;;;10.27;26.15
38452;BME280;24231;52.514;13.438;2023-02-28T08:29:37;102761.67;;;8.40;26.73
38452;BME280;24231;52.514;13.438;2023-02-28T08:32:06;102758.30;;;10.37;26.07
38452;BME280;24231;52.514;13.438;2023-02-28T08:34:33;102760.92;;;9.63;25.85
38452;BME280;24231;52.514;13.438;2023-02-28T08:37:01;102761.06;;;10.19;25.81
38452;BME280;24231;52.514;13.438;2023-02-28T08:39:28;102763.45;;;9.78;25.83
38452;BME280;24231;52.514;13.438;2023-02-28T08:41:55;102759.73;;;10.57;25.03
38452;BME280;24231;52.514;13.438;2023-02-28T08:44:22;102763.46;;;10.73;24.62
38452;BME280;24231;52.514;13.438;2023-02-28T08:46:50;102765.90;;;10.44;24.77
38452;BME280;24231;52.514;13.438;2023-02-28T08:49:17;102767.60;;;9.60;26.79
38452;BME280;24231;52.514;13.438;2023-02-28T08:51:44;102767.22;;;9.65;26.17
38452;BME280;24231;52.514;13.438;2023-02-28T08:54:11;102770.76;;;9.89;25.70
38452;BME280;24231;52.514;13.438;2023-02-28T08:56:40;102768.10;;;9.41;26.45
38452;BME280;24231;52.514;13.438;2023-02-28T08:59:08;102770.09;;;9.55;25.63
38452;BME280;24231;52.514;13.438;2023-02-28T09:01:35;102766.63;;;10.01;24.96
38452;BME280;24231;52.514;13.438;2023-02-28T09:04:02;102762.14;;;10.78;24.53
38452;BME280;24231;52.514;13.438;2023-02-28T09:06:32;102770.85;;;10.73;25.34
38452;BME280;24231;52.514;13.438;2023-02-28T09:08:59;102767.37;;;8.75;26.76
38452;BME280;24231;52.514;13.438;2023-02-28T09:11:27;102769.23;;;9.58;25.65
38452;BME280;24231;52.514;13.438;2023-02-28T09:13:55;102767.96;;;10.56;24.66
38452;BME280;24231;52.514;13.438;2023-02-28T09:16:22;102770.09;;;9.96;25.05
38452;BME280;24231;52.514;13.438;2023-02-28T09:18:49;102768.80;;;10.65;24.32
38452;BME280;24231;52.514;13.438;2023-02-28T09:21:18;102767.06;;;10.91;24.71
38452;BME280;24231;52.514;13.438;2023-02-28T09:23:47;102768.29;;;9.86;25.48
38452;BME280;24231;52.514;13.438;2023-02-28T09:26:16;102762.98;;;10.08;24.80
38452;BME280;24231;52.514;13.438;2023-02-28T09:28:44;102761.43;;;10.58;24.51
38452;BME280;24231;52.514;13.438;2023-02-28T09:31:13;102768.00;;;8.03;27.79
38452;BME280;24231;52.514;13.438;2023-02-28T09:33:41;102768.16;;;9.72;26.08
38452;BME280;24231;52.514;13.438;2023-02-28T09:36:08;102763.45;;;10.03;25.57
38452;BME280;24231;52.514;13.438;2023-02-28T09:38:35;102767.97;;;9.41;26.32
38452;BME280;24231;52.514;13.438;2023-02-28T09:41:10;102764.47;;;10.14;25.26
38452;BME280;24231;52.514;13.438;2023-02-28T09:43:41;102767.68;;;9.46;26.20
38452;BME280;24231;52.514;13.438;2023-02-28T09:46:20;102772.17;;;8.25;27.40
38452;BME280;24231;52.514;13.438;2023-02-28T09:48:53;102776.01;;;8.19;27.55
38452;BME280;24231;52.514;13.438;2023-02-28T09:51:32;102777.13;;;8.14;28.03
38452;BME280;24231;52.514;13.438;2023-02-28T09:54:00;102774.02;;;9.04;27.10
38452;BME280;24231;52.514;13.438;2023-02-28T09:56:33;102785.33;;;8.10;28.78
38452;BME280;24231;52.514;13.438;2023-02-28T09:59:04;102770.05;;;9.36;26.93
38452;BME280;24231;52.514;13.438;2023-02-28T10:01:39;102781.84;;;7.56;28.37
38452;BME280;24231;52.514;13.438;2023-02-28T10:04:16;102781.07;;;6.44;29.83
38452;BME280;24231;52.514;13.438;2023-02-28T10:06:58;102770.46;;;9.03;26.83
38452;BME280;24231;52.514;13.438;2023-02-28T10:09:29;102773.98;;;10.26;25.15
38452;BME280;24231;52.514;13.438;2023-02-28T10:12:04;102774.95;;;10.23;25.72
38452;BME280;24231;52.514;13.438;2023-02-28T10:14:34;102777.98;;;8.57;26.81
38452;BME280;24231;52.514;13.438;2023-02-28T10:17:05;102779.91;;;5.24;31.79
38452;BME280;24231;52.514;13.438;2023-02-28T10:19:41;102777.86;;;7.62;28.99
38452;BME280;24231;52.514;13.438;2023-02-28T10:22:13;102776.82;;;8.08;28.38
38452;BME280;24231;52.514;13.438;2023-02-28T10:24:43;102777.45;;;8.47;28.39
38452;BME280;24231;52.514;13.438;2023-02-28T10:27:15;102772.72;;;8.33;28.03
38452;BME280;24231;52.514;13.438;2023-02-28T10:29:44;102772.61;;;8.25;27.75
38452;BME280;24231;52.514;13.438;2023-02-28T10:32:15;102764.83;;;9.88;25.93
38452;BME280;24231;52.514;13.438;2023-02-28T10:34:43;102770.11;;;7.50;28.74
38452;BME280;24231;52.514;13.438;2023-02-28T10:37:11;102780.17;;;7.97;28.95
38452;BME280;24231;52.514;13.438;2023-02-28T10:39:42;102781.38;;;6.56;30.17
38452;BME280;24231;52.514;13.438;2023-02-28T10:42:24;102773.76;;;7.14;29.63
38452;BME280;24231;52.514;13.438;2023-02-28T10:45:06;102768.88;;;9.17;27.07
38452;BME280;24231;52.514;13.438;2023-02-28T10:47:35;102766.76;;;9.27;27.77
38452;BME280;24231;52.514;13.438;2023-02-28T10:50:04;102765.03;;;9.92;26.56
38452;BME280;24231;52.514;13.438;2023-02-28T10:52:33;102762.57;;;9.12;27.12
38452;BME280;24231;52.514;13.438;2023-02-28T10:55:21;102758.48;;;9.46;26.61
38452;BME280;24231;52.514;13.438;2023-02-28T10:57:49;102759.33;;;8.36;29.13
38452;BME280;24231;52.514;13.438;2023-02-28T11:00:19;102760.35;;;7.79;28.81
38452;BME280;24231;52.514;13.438;2023-02-28T11:02:46;102751.66;;;9.35;27.90
38452;BME280;24231;52.514;13.438;2023-02-28T11:05:31;102751.74;;;9.48;27.74
38452;BME280;24231;52.514;13.438;2023-02-28T11:08:05;102741.54;;;10.05;27.66
38452;BME280;24231;52.514;13.438;2023-02-28T11:10:33;102741.84;;;9.76;27.52
38452;BME280;24231;52.514;13.438;2023-02-28T11:13:01;102734.02;;;8.74;27.82
38452;BME280;24231;52.514;13.438;2023-02-28T11:15:30;102733.95;;;8.43;28.65
38452;BME280;24231;52.514;13.438;2023-02-28T11:20:00;102735.78;;;6.93;30.34
38452;BME280;24231;52.514;13.438;2023-02-28T11:22:31;102736.31;;;8.20;29.50
38452;BME280;24231;52.514;13.438;2023-02-28T11:25:02;102737.78;;;6.56;30.95
38452;BME280;24231;52.514;13.438;2023-02-28T11:27:45;102739.35;;;4.98;34.07
38452;BME280;24231;52.514;13.438;2023-02-28T11:30:28;102737.19;;;6.78;31.46
38452;BME280;24231;52.514;13.438;2023-02-28T11:32:56;102737.20;;;7.39;30.54
38452;BME280;24231;52.514;13.438;2023-02-28T11:35:26;102728.12;;;7.64;30.00
38452;BME280;24231;52.514;13.438;2023-02-28T11:37:54;102723.95;;;8.58;28.62
38452;BME280;24231;52.514;13.438;2023-02-28T11:40:29;102723.81;;;8.97;27.77
38452;BME280;24231;52.514;13.438;2023-02-28T11:43:06;102724.09;;;9.42;27.74
38452;BME280;24231;52.514;13.438;2023-02-28T11:45:44;102722.04;;;9.57;27.39
38452;BME280;24231;52.514;13.438;2023-02-28T11:48:20;102723.07;;;9.90;27.59
38452;BME280;24231;52.514;13.438;2023-02-28T11:50:56;102739.56;;;6.00;31.92
38452;BME280;24231;52.514;13.438;2023-02-28T11:53:42;102744.79;;;5.50;33.63
38452;BME280;24231;52.514;13.438;2023-02-28T11:56:19;102734.09;;;7.12;31.41
38452;BME280;24231;52.514;13.438;2023-02-28T11:58:55;102736.69;;;6.34;32.72
38452;BME280;24231;52.514;13.438;2023-02-28T12:01:38;102734.47;;;7.35;31.27
38452;BME280;24231;52.514;13.438;2023-02-28T12:04:18;102738.10;;;4.77;34.71
38452;BME280;24231;52.514;13.438;2023-02-28T12:06:54;102737.89;;;5.36;34.24
38452;BME280;24231;52.514;13.438;2023-02-28T12:09:37;102731.22;;;6.51;32.27
38452;BME280;24231;52.514;13.438;2023-02-28T12:12:15;102723.97;;;7.46;30.86
38452;BME280;24231;52.514;13.438;2023-02-28T12:14:55;102721.88;;;8.12;30.47
38452;BME280;24231;52.514;13.438;2023-02-28T12:17:37;102722.44;;;7.65;30.63
38452;BME280;24231;52.514;13.438;2023-02-28T12:20:17;102729.78;;;6.24;32.18
38452;BME280;24231;52.514;13.438;2023-02-28T12:22:54;102718.90;;;6.78;31.86
38452;BME280;24231;52.514;13.438;2023-02-28T12:26:36;102723.19;;;5.70;33.56
38452;BME280;24231;52.514;13.438;2023-02-28T12:29:16;102714.67;;;5.44;33.74
38452;BME280;24231;52.514;13.438;2023-02-28T12:31:47;102713.31;;;4.79;34.46
38452;BME280;24231;52.514;13.438;2023-02-28T12:34:19;102708.24;;;5.74;33.28
38452;BME280;24231;52.514;13.438;2023-02-28T12:36:50;102698.01;;;7.03;31.33
38452;BME280;24231;52.514;13.438;2023-02-28T12:39:25;102689.29;;;7.57;30.44
38452;BME280;24231;52.514;13.438;2023-02-28T12:41:56;102684.62;;;6.91;31.15
38452;BME280;24231;52.514;13.438;2023-02-28T12:44:30;102681.01;;;7.60;29.84
38452;BME280;24231;52.514;13.438;2023-02-28T12:47:02;102669.78;;;7.26;30.50
38452;BME280;24231;52.514;13.438;2023-02-28T12:49:33;102666.12;;;6.56;31.56
38452;BME280;24231;52.514;13.438;2023-02-28T12:52:03;102665.20;;;5.17;33.36
38452;BME280;24231;52.514;13.438;2023-02-28T12:54:38;102662.62;;;5.79;32.92
38452;BME280;24231;52.514;13.438;2023-02-28T12:57:17;102655.37;;;7.21;30.85
38452;BME280;24231;52.514;13.438;2023-02-28T12:59:52;102645.32;;;8.09;29.48
38452;BME280;24231;52.514;13.438;2023-02-28T13:02:42;102651.63;;;6.70;30.79
38452;BME280;24231;52.514;13.438;2023-02-28T13:05:28;102649.35;;;5.53;32.52
38452;BME280;24231;52.514;13.438;2023-02-28T13:08:12;102637.51;;;7.72;29.88
38452;BME280;24231;52.514;13.438;2023-02-28T13:10:49;102633.11;;;7.72;29.92
38452;BME280;24231;52.514;13.438;2023-02-28T13:13:19;102637.08;;;7.84;30.37